sensor_id;sensor_type;location;lat;lon;timestamp;pressure;altitude;pressure_sealevel;temperature;humidity
58092;BME280;43896;48.178;11.578;2023-06-14T04:36:53;95368.47;;;15.44;47.49
58092;BME280;43896;48.178;11.578;2023-06-14T04:39:39;95414.47;;;15.85;48.00
58092;BME280;43896;48.178;11.578;2023-06-14T04:42:04;95407.53;;;15.77;47.08
58092;BME280;43896;48.178;11.578;2023-06-14T04:44:29;95388.53;;;15.73;46.96
58092;BME280;43896;48.178;11.578;2023-06-14T04:46:57;95379.75;;;15.73;46.25
58092;BME280;43896;48.178;11.578;2023-06-14T04:49:24;95460.03;;;16.22;46.04
58092;BME280;43896;48.178;11.578;2023-06-14T04:51:50;95451.50;;;15.58;46.64
58092;BME280;43896;48.178;11.578;2023-06-14T04:54:24;95394.16;;;14.60;46.44
58092;BME280;43896;48.178;11.578;2023-06-14T04:56:53;95450.75;;;14.88;46.58
58092;BME280;43896;48.178;11.578;2023-06-14T04:59:20;95434.53;;;15.04;47.04
58092;BME280;43896;48.178;11.578;2023-06-14T05:01:48;95464.03;;;15.84;45.72
58092;BME280;43896;48.178;11.578;2023-06-14T05:04:15;95455.75;;;15.52;45.66
58092;BME280;43896;48.178;11.578;2023-06-14T05:06:44;95456.19;;;15.63;45.91
58092;BME280;43896;48.178;11.578;2023-06-14T05:09:10;95459.75;;;15.77;45.97
58092;BME280;43896;48.178;11.578;2023-06-14T05:11:36;95465.72;;;15.50;46.22
58092;BME280;43896;48.178;11.578;2023-06-14T05:14:01;95440.84;;;15.45;46.47
58092;BME280;43896;48.178;11.578;2023-06-14T05:16:26;95458.97;;;15.41;45.50
58092;BME280;43896;48.178;11.578;2023-06-14T05:18:52;95481.47;;;15.17;47.43
58092;BME280;43896;48.178;11.578;2023-06-14T05:21:18;95475.50;;;15.50;45.77
58092;BME280;43896;48.178;11.578;2023-06-14T05:23:44;95464.75;;;15.58;45.29
58092;BME280;43896;48.178;11.578;2023-06-14T05:26:10;95483.72;;;15.20;46.19
58092;BME280;43896;48.178;11.578;2023-06-14T05:28:35;95473.06;;;15.48;46.18
58092;BME280;43896;48.178;11.578;2023-06-14T05:31:01;95461.47;;;15.56;45.34
58092;BME280;43896;48.178;11.578;2023-06-14T05:33:27;95493.50;;;15.61;45.86
58092;BME280;43896;48.178;11.578;2023-06-14T05:35:58;95493.47;;;15.13;47.80
58092;BME280;43896;48.178;11.578;2023-06-14T05:38:23;95489.66;;;15.22;47.30
58092;BME280;43896;48.178;11.578;2023-06-14T05:40:49;95476.31;;;15.92;46.27
58092;BME280;43896;48.178;11.578;2023-06-14T05:43:14;95492.06;;;16.27;46.00
58092;BME280;43896;48.178;11.578;2023-06-14T05:45:39;95431.00;;;16.00;45.37
58092;BME280;43896;48.178;11.578;2023-06-14T05:48:05;95424.81;;;15.66;46.10
58092;BME280;43896;48.178;11.578;2023-06-14T05:50:30;95469.59;;;15.06;48.14
58092;BME280;43896;48.178;11.578;2023-06-14T05:52:55;95486.00;;;15.71;47.50
58092;BME280;43896;48.178;11.578;2023-06-14T05:55:21;95436.31;;;15.87;46.32
58092;BME280;43896;48.178;11.578;2023-06-14T05:57:47;95483.31;;;16.26;45.41
58092;BME280;43896;48.178;11.578;2023-06-14T06:00:13;95436.41;;;15.65;46.33
58092;BME280;43896;48.178;11.578;2023-06-14T06:02:43;95497.97;;;15.61;47.48
58092;BME280;43896;48.178;11.578;2023-06-14T06:05:12;95444.25;;;15.32;47.28
58092;BME280;43896;48.178;11.578;2023-06-14T06:07:38;95463.25;;;15.90;46.41
58092;BME280;43896;48.178;11.578;2023-06-14T06:10:05;95459.41;;;16.20;45.58
58092;BME280;43896;48.178;11.578;2023-06-14T06:12:31;95421.22;;;15.94;46.14
58092;BME280;43896;48.178;11.578;2023-06-14T06:14:58;95493.78;;;15.80;47.14
58092;BME280;43896;48.178;11.578;2023-06-14T06:17:24;95494.97;;;15.70;47.60
58092;BME280;43896;48.178;11.578;2023-06-14T06:19:50;95482.03;;;16.09;46.72
58092;BME280;43896;48.178;11.578;2023-06-14T06:22:15;95435.09;;;15.96;46.62
58092;BME280;43896;48.178;11.578;2023-06-14T06:24:40;95477.94;;;16.00;47.51
58092;BME280;43896;48.178;11.578;2023-06-14T06:27:06;95456.75;;;16.06;46.74
58092;BME280;43896;48.178;11.578;2023-06-14T06:29:33;95507.22;;;16.60;46.29
58092;BME280;43896;48.178;11.578;2023-06-14T06:31:58;95459.19;;;16.01;46.70
58092;BME280;43896;48.178;11.578;2023-06-14T06:34:24;95457.13;;;15.97;47.09
58092;BME280;43896;48.178;11.578;2023-06-14T06:36:49;95523.91;;;16.27;47.63
58092;BME280;43896;48.178;11.578;2023-06-14T06:39:14;95516.97;;;16.26;47.57
58092;BME280;43896;48.178;11.578;2023-06-14T06:41:40;95518.00;;;16.38;47.44
58092;BME280;43896;48.178;11.578;2023-06-14T06:44:06;95504.97;;;16.37;47.49
58092;BME280;43896;48.178;11.578;2023-06-14T06:46:35;95524.50;;;16.22;48.14
58092;BME280;43896;48.178;11.578;2023-06-14T06:49:05;95517.84;;;16.73;47.35
58092;BME280;43896;48.178;11.578;2023-06-14T06:51:30;95518.47;;;16.89;46.60
58092;BME280;43896;48.178;11.578;2023-06-14T06:53:55;95530.91;;;17.08;45.71
58092;BME280;43896;48.178;11.578;2023-06-14T06:56:21;95513.78;;;16.91;45.98
58092;BME280;43896;48.178;11.578;2023-06-14T06:58:50;95505.34;;;17.27;44.42
58092;BME280;43896;48.178;11.578;2023-06-14T07:01:16;95508.47;;;16.91;45.30
58092;BME280;43896;48.178;11.578;2023-06-14T07:03:42;95530.25;;;17.33;45.78
58092;BME280;43896;48.178;11.578;2023-06-14T07:06:08;95521.69;;;17.24;45.17
58092;BME280;43896;48.178;11.578;2023-06-14T07:08:33;95509.03;;;17.26;45.90
58092;BME280;43896;48.178;11.578;2023-06-14T07:10:58;95517.66;;;17.73;45.80
58092;BME280;43896;48.178;11.578;2023-06-14T07:13:23;95520.19;;;18.07;44.55
58092;BME280;43896;48.178;11.578;2023-06-14T07:15:49;95508.88;;;17.73;45.33
58092;BME280;43896;48.178;11.578;2023-06-14T07:18:14;95530.19;;;18.18;44.26
58092;BME280;43896;48.178;11.578;2023-06-14T07:20:40;95515.47;;;18.15;43.97
58092;BME280;43896;48.178;11.578;2023-06-14T07:23:05;95537.31;;;18.24;44.04
58092;BME280;43896;48.178;11.578;2023-06-14T07:25:31;95506.78;;;17.88;44.43
58092;BME280;43896;48.178;11.578;2023-06-14T07:27:56;95506.41;;;18.23;43.29
58092;BME280;43896;48.178;11.578;2023-06-14T07:30:21;95531.69;;;18.71;43.22
58092;BME280;43896;48.178;11.578;2023-06-14T07:32:51;95522.63;;;18.72;43.27
58092;BME280;43896;48.178;11.578;2023-06-14T07:35:17;95539.53;;;18.91;43.05
58092;BME280;43896;48.178;11.578;2023-06-14T07:37:42;95541.88;;;18.81;42.53
58092;BME280;43896;48.178;11.578;2023-06-14T07:40:08;95544.41;;;18.69;41.00
58092;BME280;43896;48.178;11.578;2023-06-14T07:42:35;95545.16;;;18.76;42.37
58092;BME280;43896;48.178;11.578;2023-06-14T07:45:01;95544.28;;;18.89;42.74
58092;BME280;43896;48.178;11.578;2023-06-14T07:47:27;95527.78;;;18.99;41.54
58092;BME280;43896;48.178;11.578;2023-06-14T07:49:52;95520.06;;;19.16;41.11
58092;BME280;43896;48.178;11.578;2023-06-14T07:52:17;95530.75;;;19.71;41.08
58092;BME280;43896;48.178;11.578;2023-06-14T07:54:43;95533.66;;;19.88;40.17
58092;BME280;43896;48.178;11.578;2023-06-14T07:57:08;95536.38;;;20.18;40.68
58092;BME280;43896;48.178;11.578;2023-06-14T07:59:33;95527.75;;;19.86;40.28
58092;BME280;43896;48.178;11.578;2023-06-14T08:01:59;95542.47;;;19.89;39.65
58092;BME280;43896;48.178;11.578;2023-06-14T08:04:24;95472.06;;;19.53;38.62
58092;BME280;43896;48.178;11.578;2023-06-14T08:06:50;95544.97;;;20.20;37.81
58092;BME280;43896;48.178;11.578;2023-06-14T08:09:15;95522.34;;;20.23;38.18
58092;BME280;43896;48.178;11.578;2023-06-14T08:11:41;95511.84;;;20.10;37.66
58092;BME280;43896;48.178;11.578;2023-06-14T08:14:08;95542.88;;;20.22;37.26
58092;BME280;43896;48.178;11.578;2023-06-14T08:16:33;95499.75;;;20.07;35.75
58092;BME280;43896;48.178;11.578;2023-06-14T08:18:59;95534.59;;;20.12;37.35
58092;BME280;43896;48.178;11.578;2023-06-14T08:21:24;95534.97;;;20.16;35.44
58092;BME280;43896;48.178;11.578;2023-06-14T08:23:52;95535.16;;;20.75;35.41
58092;BME280;43896;48.178;11.578;2023-06-14T08:26:18;95520.94;;;21.05;35.55
58092;BME280;43896;48.178;11.578;2023-06-14T08:28:43;95547.31;;;21.01;36.23
58092;BME280;43896;48.178;11.578;2023-06-14T08:31:09;95548.25;;;21.19;36.14
58092;BME280;43896;48.178;11.578;2023-06-14T08:33:34;95551.38;;;21.15;36.32
58092;BME280;43896;48.178;11.578;2023-06-14T08:35:59;95552.56;;;21.55;36.67
58092;BME280;43896;48.178;11.578;2023-06-14T08:38:25;95549.19;;;21.71;35.56
58092;BME280;43896;48.178;11.578;2023-06-14T08:40:50;95556.59;;;21.81;36.37
58092;BME280;43896;48.178;11.578;2023-06-14T08:43:16;95542.47;;;22.09;34.67
58092;BME280;43896;48.178;11.578;2023-06-14T08:45:42;95539.34;;;22.01;33.70
58092;BME280;43896;48.178;11.578;2023-06-14T08:48:07;95551.63;;;22.14;33.29
58092;BME280;43896;48.178;11.578;2023-06-14T08:50:34;95556.94;;;22.37;32.92
58092;BME280;43896;48.178;11.578;2023-06-14T08:53:02;95571.78;;;22.16;33.31
58092;BME280;43896;48.178;11.578;2023-06-14T08:55:28;95553.72;;;22.23;33.53
58092;BME280;43896;48.178;11.578;2023-06-14T08:57:55;95552.34;;;22.50;34.36
58092;BME280;43896;48.178;11.578;2023-06-14T09:00:24;95556.00;;;22.60;33.55
58092;BME280;43896;48.178;11.578;2023-06-14T09:02:50;95553.78;;;22.40;31.89
58092;BME280;43896;48.178;11.578;2023-06-14T09:05:21;95557.31;;;22.58;33.63
58092;BME280;43896;48.178;11.578;2023-06-14T09:07:46;95543.06;;;23.03;32.47
58092;BME280;43896;48.178;11.578;2023-06-14T09:10:15;95545.88;;;22.62;33.59
58092;BME280;43896;48.178;11.578;2023-06-14T09:12:40;95555.91;;;22.26;32.01
58092;BME280;43896;48.178;11.578;2023-06-14T09:15:07;95539.00;;;21.97;32.73
58092;BME280;43896;48.178;11.578;2023-06-14T09:17:35;95556.44;;;22.52;32.00
58092;BME280;43896;48.178;11.578;2023-06-14T09:20:02;95557.53;;;23.02;33.37
58092;BME280;43896;48.178;11.578;2023-06-14T09:22:30;95559.81;;;23.27;31.44
58092;BME280;43896;48.178;11.578;2023-06-14T09:24:56;95540.53;;;22.79;30.39
58092;BME280;43896;48.178;11.578;2023-06-14T09:27:21;95544.53;;;22.48;32.01
58092;BME280;43896;48.178;11.578;2023-06-14T09:29:46;95558.97;;;22.76;31.06
58092;BME280;43896;48.178;11.578;2023-06-14T09:32:12;95545.94;;;22.51;31.43
58092;BME280;43896;48.178;11.578;2023-06-14T09:34:37;95569.75;;;23.44;31.95
58092;BME280;43896;48.178;11.578;2023-06-14T09:37:03;95551.59;;;23.00;30.39
58092;BME280;43896;48.178;11.578;2023-06-14T09:39:28;95565.72;;;22.78;30.81
58092;BME280;43896;48.178;11.578;2023-06-14T09:41:53;95558.63;;;22.72;31.19
58092;BME280;43896;48.178;11.578;2023-06-14T09:44:19;95561.47;;;23.11;31.67
58092;BME280;43896;48.178;11.578;2023-06-14T09:46:45;95562.50;;;23.44;31.39
58092;BME280;43896;48.178;11.578;2023-06-14T09:49:11;95564.75;;;23.52;31.53
58092;BME280;43896;48.178;11.578;2023-06-14T09:51:42;95571.78;;;23.36;31.28
58092;BME280;43896;48.178;11.578;2023-06-14T09:54:15;95570.66;;;23.71;31.13
58092;BME280;43896;48.178;11.578;2023-06-14T09:56:41;95582.66;;;24.03;31.36
58092;BME280;43896;48.178;11.578;2023-06-14T09:59:10;95572.44;;;23.83;31.57
58092;BME280;43896;48.178;11.578;2023-06-14T10:01:41;95584.78;;;23.28;31.32
58092;BME280;43896;48.178;11.578;2023-06-14T10:04:09;95564.34;;;23.61;30.66
58092;BME280;43896;48.178;11.578;2023-06-14T10:06:41;95576.75;;;23.11;31.94
58092;BME280;43896;48.178;11.578;2023-06-14T10:09:09;95573.78;;;23.63;31.75
58092;BME280;43896;48.178;11.578;2023-06-14T10:11:36;95555.44;;;23.77;30.98
58092;BME280;43896;48.178;11.578;2023-06-14T10:14:04;95563.03;;;24.02;30.85
58092;BME280;43896;48.178;11.578;2023-06-14T10:16:40;95569.66;;;23.94;30.31
58092;BME280;43896;48.178;11.578;2023-06-14T10:19:16;95570.91;;;23.87;30.64
58092;BME280;43896;48.178;11.578;2023-06-14T10:24:44;95570.34;;;23.68;30.60
58092;BME280;43896;48.178;11.578;2023-06-14T10:27:13;95549.03;;;23.61;31.20
58092;BME280;43896;48.178;11.578;2023-06-14T10:32:20;95555.16;;;24.18;30.83
58092;BME280;43896;48.178;11.578;2023-06-14T10:34:53;95573.97;;;24.18;30.31
58092;BME280;43896;48.178;11.578;2023-06-14T10:37:19;95547.84;;;23.91;29.99
58092;BME280;43896;48.178;11.578;2023-06-14T10:39:45;95554.72;;;24.53;29.34
58092;BME280;43896;48.178;11.578;2023-06-14T10:42:14;95568.06;;;24.65;29.09
58092;BME280;43896;48.178;11.578;2023-06-14T10:45:00;95563.56;;;24.48;28.59
58092;BME280;43896;48.178;11.578;2023-06-14T10:47:30;95572.31;;;24.88;28.48
58092;BME280;43896;48.178;11.578;2023-06-14T10:50:05;95521.75;;;24.36;28.23
58092;BME280;43896;48.178;11.578;2023-06-14T10:52:42;95560.53;;;24.18;28.63
58092;BME280;43896;48.178;11.578;2023-06-14T10:55:15;95525.88;;;23.94;27.75
58092;BME280;43896;48.178;11.578;2023-06-14T10:57:44;95555.81;;;24.52;29.24
58092;BME280;43896;48.178;11.578;2023-06-14T11:00:11;95553.69;;;24.81;26.77
58092;BME280;43896;48.178;11.578;2023-06-14T11:11:07;95564.84;;;25.65;27.26
58092;BME280;43896;48.178;11.578;2023-06-14T11:13:34;95562.66;;;24.92;25.59
58092;BME280;43896;48.178;11.578;2023-06-14T11:16:01;95557.53;;;25.55;26.85
58092;BME280;43896;48.178;11.578;2023-06-14T11:18:28;95558.03;;;25.52;25.05
58092;BME280;43896;48.178;11.578;2023-06-14T11:20:53;95570.00;;;25.29;25.40
58092;BME280;43896;48.178;11.578;2023-06-14T11:23:19;95550.97;;;25.41;24.57
58092;BME280;43896;48.178;11.578;2023-06-14T11:25:52;95556.69;;;24.85;24.68
58092;BME280;43896;48.178;11.578;2023-06-14T11:28:17;95547.19;;;25.09;25.42
58092;BME280;43896;48.178;11.578;2023-06-14T11:30:45;95554.91;;;25.28;26.11
58092;BME280;43896;48.178;11.578;2023-06-14T11:33:11;95542.88;;;25.36;27.16
58092;BME280;43896;48.178;11.578;2023-06-14T11:35:37;95549.25;;;24.97;26.20
58092;BME280;43896;48.178;11.578;2023-06-14T11:38:02;95555.91;;;25.22;26.69
58092;BME280;43896;48.178;11.578;2023-06-14T11:40:28;95560.69;;;25.15;25.73
58092;BME280;43896;48.178;11.578;2023-06-14T11:43:01;95556.44;;;25.19;26.97
58092;BME280;43896;48.178;11.578;2023-06-14T11:45:29;95521.28;;;24.66;25.97
58092;BME280;43896;48.178;11.578;2023-06-14T11:47:56;95500.28;;;24.63;26.24
58092;BME280;43896;48.178;11.578;2023-06-14T11:50:22;95558.34;;;25.23;25.69
58092;BME280;43896;48.178;11.578;2023-06-14T11:52:57;95513.69;;;24.90;24.86
58092;BME280;43896;48.178;11.578;2023-06-14T11:55:25;95479.78;;;24.89;24.88
58092;BME280;43896;48.178;11.578;2023-06-14T11:57:51;95511.84;;;25.28;25.90
58092;BME280;43896;48.178;11.578;2023-06-14T12:00:17;95538.59;;;25.93;24.17
58092;BME280;43896;48.178;11.578;2023-06-14T12:02:53;95527.09;;;26.08;24.84
58092;BME280;43896;48.178;11.578;2023-06-14T12:05:22;95510.25;;;25.85;25.64
58092;BME280;43896;48.178;11.578;2023-06-14T12:07:47;95510.22;;;25.27;25.05
58092;BME280;43896;48.178;11.578;2023-06-14T12:10:14;95500.66;;;25.47;24.81
58092;BME280;43896;48.178;11.578;2023-06-14T12:12:40;95486.75;;;24.85;25.78
58092;BME280;43896;48.178;11.578;2023-06-14T12:15:08;95540.88;;;24.94;25.95
58092;BME280;43896;48.178;11.578;2023-06-14T12:17:36;95515.91;;;24.98;26.34
58092;BME280;43896;48.178;11.578;2023-06-14T12:20:08;95530.63;;;23.87;26.31
58092;BME280;43896;48.178;11.578;2023-06-14T12:22:39;95505.72;;;23.74;26.26
58092;BME280;43896;48.178;11.578;2023-06-14T12:25:05;95539.38;;;25.08;25.68
58092;BME280;43896;48.178;11.578;2023-06-14T12:27:30;95515.59;;;25.27;24.75
58092;BME280;43896;48.178;11.578;2023-06-14T12:30:02;95536.09;;;25.33;25.10
58092;BME280;43896;48.178;11.578;2023-06-14T12:32:28;95515.53;;;25.64;25.44
58092;BME280;43896;48.178;11.578;2023-06-14T12:34:54;95523.81;;;25.95;24.47
58092;BME280;43896;48.178;11.578;2023-06-14T12:37:20;95480.78;;;25.58;25.77
58092;BME280;43896;48.178;11.578;2023-06-14T12:39:45;95482.44;;;25.64;24.84
58092;BME280;43896;48.178;11.578;2023-06-14T12:42:11;95487.94;;;25.37;24.49
58092;BME280;43896;48.178;11.578;2023-06-14T12:44:36;95504.59;;;24.96;24.92
58092;BME280;43896;48.178;11.578;2023-06-14T12:47:06;95467.88;;;25.17;25.60
58092;BME280;43896;48.178;11.578;2023-06-14T12:49:32;95538.03;;;25.86;24.84
58092;BME280;43896;48.178;11.578;2023-06-14T12:51:58;95533.84;;;26.10;24.13
58092;BME280;43896;48.178;11.578;2023-06-14T12:54:23;95492.28;;;24.46;25.42
58092;BME280;43896;48.178;11.578;2023-06-14T12:56:51;95523.44;;;24.42;25.92
58092;BME280;43896;48.178;11.578;2023-06-14T12:59:17;95464.25;;;24.37;25.24
58092;BME280;43896;48.178;11.578;2023-06-14T13:01:42;95523.28;;;24.53;25.26
58092;BME280;43896;48.178;11.578;2023-06-14T13:04:07;95492.25;;;24.68;25.38
58092;BME280;43896;48.178;11.578;2023-06-14T13:06:33;95545.66;;;25.19;25.90
58092;BME280;43896;48.178;11.578;2023-06-14T13:08:58;95549.56;;;25.76;25.89
58092;BME280;43896;48.178;11.578;2023-06-14T13:11:24;95520.38;;;24.87;24.90
58092;BME280;43896;48.178;11.578;2023-06-14T13:13:49;95546.91;;;25.38;24.77
58092;BME280;43896;48.178;11.578;2023-06-14T13:16:14;95545.34;;;25.48;25.05
58092;BME280;43896;48.178;11.578;2023-06-14T13:18:40;95542.88;;;25.36;24.99
58092;BME280;43896;48.178;11.578;2023-06-14T13:21:05;95551.09;;;25.24;25.14
58092;BME280;43896;48.178;11.578;2023-06-14T13:23:30;95533.47;;;25.91;23.71
58092;BME280;43896;48.178;11.578;2023-06-14T13:25:56;95537.56;;;25.99;24.59
58092;BME280;43896;48.178;11.578;2023-06-14T13:28:21;95514.50;;;25.71;23.74
58092;BME280;43896;48.178;11.578;2023-06-14T13:30:47;95531.81;;;25.37;23.29
58092;BME280;43896;48.178;11.578;2023-06-14T13:33:13;95535.94;;;25.50;23.29
58092;BME280;43896;48.178;11.578;2023-06-14T13:35:39;95530.63;;;25.60;25.70
58092;BME280;43896;48.178;11.578;2023-06-14T13:38:04;95527.91;;;25.55;25.98
58092;BME280;43896;48.178;11.578;2023-06-14T13:40:29;95518.31;;;25.32;25.21
58092;BME280;43896;48.178;11.578;2023-06-14T13:42:55;95509.22;;;25.91;25.43
58092;BME280;43896;48.178;11.578;2023-06-14T13:45:20;95486.00;;;25.32;24.40
58092;BME280;43896;48.178;11.578;2023-06-14T13:47:46;95513.38;;;26.14;24.20
58092;BME280;43896;48.178;11.578;2023-06-14T13:50:13;95491.41;;;25.32;23.85
58092;BME280;43896;48.178;11.578;2023-06-14T13:52:39;95472.63;;;25.48;24.01
58092;BME280;43896;48.178;11.578;2023-06-14T13:55:05;95500.31;;;24.68;23.77
58092;BME280;43896;48.178;11.578;2023-06-14T13:57:30;95485.63;;;24.76;24.90
58092;BME280;43896;48.178;11.578;2023-06-14T13:59:56;95531.63;;;25.17;24.39
58092;BME280;43896;48.178;11.578;2023-06-14T14:02:26;95530.69;;;25.76;23.39
58092;BME280;43896;48.178;11.578;2023-06-14T14:04:52;95529.38;;;25.31;23.74
58092;BME280;43896;48.178;11.578;2023-06-14T14:07:18;95527.22;;;25.75;23.51
58092;BME280;43896;48.178;11.578;2023-06-14T14:09:45;95512.41;;;25.35;24.70
58092;BME280;43896;48.178;11.578;2023-06-14T14:12:10;95515.66;;;25.37;25.14
58092;BME280;43896;48.178;11.578;2023-06-14T14:14:36;95520.69;;;25.66;24.83
58092;BME280;43896;48.178;11.578;2023-06-14T14:17:01;95513.94;;;25.63;24.58
58092;BME280;43896;48.178;11.578;2023-06-14T14:19:27;95520.19;;;25.74;24.00
58092;BME280;43896;48.178;11.578;2023-06-14T14:21:53;95521.59;;;25.34;24.58
58092;BME280;43896;48.178;11.578;2023-06-14T14:24:21;95530.72;;;24.41;25.38
58092;BME280;43896;48.178;11.578;2023-06-14T14:26:46;95508.97;;;23.76;26.91
58092;BME280;43896;48.178;11.578;2023-06-14T14:29:14;95522.47;;;24.53;26.24
58092;BME280;43896;48.178;11.578;2023-06-14T14:31:41;95517.84;;;25.08;25.87
58092;BME280;43896;48.178;11.578;2023-06-14T14:34:07;95490.56;;;24.94;25.34
58092;BME280;43896;48.178;11.578;2023-06-14T14:36:32;95463.22;;;25.07;25.06
58092;BME280;43896;48.178;11.578;2023-06-14T14:39:05;95503.69;;;25.60;25.00
58092;BME280;43896;48.178;11.578;2023-06-14T14:41:32;95523.75;;;25.90;24.40
58092;BME280;43896;48.178;11.578;2023-06-14T14:43:57;95536.16;;;25.43;25.99
58092;BME280;43896;48.178;11.578;2023-06-14T14:46:23;95485.63;;;25.18;25.56
58092;BME280;43896;48.178;11.578;2023-06-14T14:48:50;95490.69;;;24.45;26.29
58092;BME280;43896;48.178;11.578;2023-06-14T14:51:15;95539.38;;;24.48;26.71
58092;BME280;43896;48.178;11.578;2023-06-14T14:53:40;95538.31;;;24.27;26.56
58092;BME280;43896;48.178;11.578;2023-06-14T14:56:06;95534.31;;;23.64;26.94
58092;BME280;43896;48.178;11.578;2023-06-14T14:58:31;95507.56;;;23.30;28.30
58092;BME280;43896;48.178;11.578;2023-06-14T15:00:56;95489.38;;;23.98;27.11
58092;BME280;43896;48.178;11.578;2023-06-14T15:03:22;95490.34;;;24.36;26.52
58092;BME280;43896;48.178;11.578;2023-06-14T15:05:47;95521.50;;;24.59;26.96
58092;BME280;43896;48.178;11.578;2023-06-14T15:08:13;95483.69;;;23.94;26.85
58092;BME280;43896;48.178;11.578;2023-06-14T15:10:41;95521.66;;;24.25;26.82
58092;BME280;43896;48.178;11.578;2023-06-14T15:13:07;95511.25;;;23.85;28.53
58092;BME280;43896;48.178;11.578;2023-06-14T15:15:36;95539.72;;;23.86;27.72
58092;BME280;43896;48.178;11.578;2023-06-14T15:18:02;95544.31;;;23.12;27.93
58092;BME280;43896;48.178;11.578;2023-06-14T15:20:27;95549.41;;;22.97;29.83
58092;BME280;43896;48.178;11.578;2023-06-14T15:22:54;95543.84;;;23.03;29.28
58092;BME280;43896;48.178;11.578;2023-06-14T15:25:25;95515.44;;;23.02;29.34
58092;BME280;43896;48.178;11.578;2023-06-14T15:27:50;95528.63;;;23.21;31.66
58092;BME280;43896;48.178;11.578;2023-06-14T15:30:16;95548.38;;;23.32;27.57
58092;BME280;43896;48.178;11.578;2023-06-14T15:32:41;95547.84;;;23.01;27.42
58092;BME280;43896;48.178;11.578;2023-06-14T15:35:07;95544.59;;;22.82;26.82
58092;BME280;43896;48.178;11.578;2023-06-14T15:37:32;95551.16;;;22.74;27.23
58092;BME280;43896;48.178;11.578;2023-06-14T15:39:57;95544.91;;;22.69;28.32
58092;BME280;43896;48.178;11.578;2023-06-14T15:42:22;95504.31;;;22.31;28.27
58092;BME280;43896;48.178;11.578;2023-06-14T15:44:48;95543.34;;;22.56;28.85
58092;BME280;43896;48.178;11.578;2023-06-14T15:47:13;95516.69;;;22.20;29.56
58092;BME280;43896;48.178;11.578;2023-06-14T15:49:39;95546.78;;;22.68;29.25
58092;BME280;43896;48.178;11.578;2023-06-14T15:52:05;95535.91;;;23.09;29.45
58092;BME280;43896;48.178;11.578;2023-06-14T15:54:31;95539.25;;;23.33;28.99
58092;BME280;43896;48.178;11.578;2023-06-14T15:56:57;95521.88;;;23.18;29.14
58092;BME280;43896;48.178;11.578;2023-06-14T15:59:23;95517.28;;;23.36;29.69
58092;BME280;43896;48.178;11.578;2023-06-14T16:01:49;95523.34;;;23.48;29.56
58092;BME280;43896;48.178;11.578;2023-06-14T16:04:14;95535.50;;;23.73;29.32
58092;BME280;43896;48.178;11.578;2023-06-14T16:06:39;95539.47;;;23.48;29.56
58092;BME280;43896;48.178;11.578;2023-06-14T16:09:05;95544.88;;;23.31;30.00
58092;BME280;43896;48.178;11.578;2023-06-14T16:11:30;95541.69;;;23.00;29.49
58092;BME280;43896;48.178;11.578;2023-06-14T16:13:56;95531.88;;;23.06;29.83
58092;BME280;43896;48.178;11.578;2023-06-14T16:16:22;95554.84;;;23.36;30.04
58092;BME280;43896;48.178;11.578;2023-06-14T16:18:48;95563.19;;;23.17;29.80
58092;BME280;43896;48.178;11.578;2023-06-14T16:21:13;95538.59;;;22.92;29.85
58092;BME280;43896;48.178;11.578;2023-06-14T16:23:38;95545.56;;;22.93;29.76
58092;BME280;43896;48.178;11.578;2023-06-14T16:26:04;95557.22;;;23.15;30.39
58092;BME280;43896;48.178;11.578;2023-06-14T16:28:30;95549.84;;;23.06;30.56
58092;BME280;43896;48.178;11.578;2023-06-14T16:30:57;95537.59;;;22.98;30.08
58092;BME280;43896;48.178;11.578;2023-06-14T16:33:22;95560.66;;;23.11;32.14
58092;BME280;43896;48.178;11.578;2023-06-14T16:35:47;95558.97;;;22.93;31.33
58092;BME280;43896;48.178;11.578;2023-06-14T16:38:12;95545.09;;;22.96;31.12
58092;BME280;43896;48.178;11.578;2023-06-14T16:40:38;95561.75;;;22.98;30.46
58092;BME280;43896;48.178;11.578;2023-06-14T16:43:03;95565.22;;;22.98;30.43
58092;BME280;43896;48.178;11.578;2023-06-14T16:45:28;95568.47;;;23.12;29.84
58092;BME280;43896;48.178;11.578;2023-06-14T16:47:54;95553.38;;;22.94;31.96
58092;BME280;43896;48.178;11.578;2023-06-14T16:50:19;95571.66;;;22.97;30.97
58092;BME280;43896;48.178;11.578;2023-06-14T16:52:45;95571.34;;;22.94;30.93
58092;BME280;43896;48.178;11.578;2023-06-14T16:55:10;95568.13;;;22.63;31.00
58092;BME280;43896;48.178;11.578;2023-06-14T16:57:37;95565.44;;;22.34;30.70
58092;BME280;43896;48.178;11.578;2023-06-14T17:00:04;95582.19;;;22.41;30.92
58092;BME280;43896;48.178;11.578;2023-06-14T17:02:30;95578.22;;;22.03;32.28
58092;BME280;43896;48.178;11.578;2023-06-14T17:04:55;95589.69;;;22.16;33.52
58092;BME280;43896;48.178;11.578;2023-06-14T17:07:20;95575.44;;;21.98;31.47
58092;BME280;43896;48.178;11.578;2023-06-14T17:09:46;95586.50;;;22.42;32.20
58092;BME280;43896;48.178;11.578;2023-06-14T17:12:11;95586.84;;;22.46;31.23
58092;BME280;43896;48.178;11.578;2023-06-14T17:14:37;95594.69;;;22.24;32.98
58092;BME280;43896;48.178;11.578;2023-06-14T17:17:03;95597.38;;;22.64;32.14
58092;BME280;43896;48.178;11.578;2023-06-14T17:19:28;95597.75;;;22.85;31.36
58092;BME280;43896;48.178;11.578;2023-06-14T17:21:53;95604.50;;;22.59;31.91
58092;BME280;43896;48.178;11.578;2023-06-14T17:24:19;95607.63;;;22.39;31.96
58092;BME280;43896;48.178;11.578;2023-06-14T17:26:45;95605.88;;;22.33;32.50
58092;BME280;43896;48.178;11.578;2023-06-14T17:29:10;95608.09;;;22.64;33.08
58092;BME280;43896;48.178;11.578;2023-06-14T17:31:36;95592.81;;;22.36;31.85
58092;BME280;43896;48.178;11.578;2023-06-14T17:34:01;95607.38;;;22.40;31.08
58092;BME280;43896;48.178;11.578;2023-06-14T17:36:26;95597.09;;;22.49;33.10